Lethbridge,

9:15 PM MDT on April 27, 2017 (GMT -0600)
Lethbridge | | Change Station

Elev 3048 ft 49.63 °N, 112.79 °W | Updated 1 hour ago

Overcast
Overcast
43 °F
Feels Like 38 °F
N
8
Wind Variable Wind from NNW

Today
High -- | Low -- °F
--% Chance of Precip.
Yesterday
High -- | Low -- °F
Precip. -- in
Pressure 29.88 in
Visibility 30.0 miles
Clouds Few 3000 ft
Mostly Cloudy 9500 ft
Overcast 27000 ft
Windchill 38 °F
Dew Point 36 °F
Humidity 76%
Rainfall 0.00 in
Snow Depth Not available.
6:15 AM 8:43 PM
Waxing Crescent, 4% visible
METAR CYQL 280200Z 34007KT 30SM FEW030 BKN095 OVC270 06/02 A2979 RMK SC1AC5CI2 SLP116
Pressure 29.88 in
Visibility 30.0 miles
Clouds Few 3000 ft
Mostly Cloudy 9500 ft
Overcast 27000 ft
Windchill 38 °F
Dew Point 36 °F
Humidity 76%
Rainfall 0.00 in
Snow Depth Not available.
6:15 AM 8:43 PM
Waxing Crescent, 4% visible
METAR CYQL 280200Z 34007KT 30SM FEW030 BKN095 OVC270 06/02 A2979 RMK SC1AC5CI2 SLP116

Get Severe Weather Alerts

Thanks for signing up!

Be on the lookout for a verification email in your inbox.

You'll start receiving the daily forecast at 8 AM.

×

10-Day Weather Forecast

No radar image for this location.
×

Almanac

Astronomy

Apr. 27, 2017 Rise Set
Actual Time
Civil Twilight
Nautical Twilight
Astronomical Twilight
Moon
Length of Visible Light
Length of Day
Tomorrow will be .
, % of the Moon is Illuminated

Today's Extremes

Country Highs Country Lows

Community

WunderPhotos

WunderBlog® & News

Nearby

Air Quality

  Air Quality AQ Index Pollutant
Not available.

Snow Depth

Station Depth Elevation

Earthquake Activity

City Distance Mag. Time & Date
Minimum magnitude displayed is 2.5.

Coastal Water Temperatures

Place Temperature

Stations

Nearby Weather Stations

Station Location Temp. Windchill Dew Point Humidity Wind Precip. Elev Updated Type
                   

Watches & Warnings

There are currently no watches in effect.